Colorado Star — 9HA2189 — position and weather

sailwx.info

Track history (hours):
 
Tides and Currents Weather Stations Pressure Air Temp Water Temp Dewpoint Dewpoint Depression Visibility Wind Speed Wind Dir Waves Ship Positions

Colorado Star

Last reported at 2017-Dec-11 08:53 UTC. Time now 2017-Dec-13 22:49 UTC.
Position N 56°00' E 016°37'.

Length 128 m; draft 8.3 m.

Type: Ship. MMSI: 248127000.

Date/timePositionNaut miles runAvg speedWind from/ knotsBaromVisibWave heightAir tempDewpointWater temp
2017-Dec-11 08:53N 56°00' E 016°37'410.7
2017-Dec-11 08:30N 55°58' E 016°31'510.5
2017-Dec-11 08:00N 55°56' E 016°23'510.5
2017-Dec-11 07:30N 55°53' E 016°15'510.3
2017-Dec-11 07:00N 55°51' E 016°07'510.2
2017-Dec-11 06:30N 55°48' E 015°59'510.3
2017-Dec-11 06:00N 55°46' E 015°50'510.4
2017-Dec-11 05:30N 55°44' E 015°42'510.5
2017-Dec-11 05:00N 55°41' E 015°34'510.4
2017-Dec-11 04:30N 55°39' E 015°26'510.2
2017-Dec-11 04:00N 55°36' E 015°18'510.2
2017-Dec-11 03:30N 55°34' E 015°10'510.4
2017-Dec-11 03:00N 55°31' E 015°02'510.5
2017-Dec-11 02:30N 55°29' E 014°54'510.5
2017-Dec-11 02:00N 55°26' E 014°46'510.7
2017-Dec-11 01:30N 55°24' E 014°38'611.0
2017-Dec-11 01:00N 55°19' E 014°32'511.0
2017-Dec-11 00:30N 55°15' E 014°27'511.0
2017-Dec-11 00:00N 55°10' E 014°21'510.9
2017-Dec-10 23:30N 55°06' E 014°15'611.0
2017-Dec-10 23:00N 55°02' E 014°09'610.5
2017-Dec-10 22:27N 54°60' E 013°60'6410.4
2017-Dec-10 16:16N 54°34' E 012°18'311.0
2017-Dec-10 16:00N 54°31' E 012°16'511.0
2017-Dec-10 15:30N 54°26' E 012°12'2010.3
2017-Dec-10 13:33N 54°27' E 011°38'111.0
2017-Dec-10 13:30N 54°28' E 011°37'611.7
2017-Dec-10 12:59N 54°30' E 011°27'611.5
2017-Dec-10 12:30N 54°33' E 011°19'611.4
2017-Dec-10 12:00N 54°35' E 011°10'611.3
2017-Dec-10 11:30N 54°38' E 011°02'611.0
2017-Dec-10 11:00N 54°41' E 010°54'5 9.7
2017-Dec-10 10:30N 54°45' E 010°50'5 9.6
2017-Dec-10 10:00N 54°50' E 010°52'510.2
2017-Dec-10 09:30N 54°55' E 010°53'5 9.9
2017-Dec-10 09:00N 54°59' E 010°59'510.1
2017-Dec-10 08:30N 55°04' E 011°02'610.2
2017-Dec-10 07:58N 55°09' E 011°03'5 9.7
2017-Dec-10 07:29N 55°13' E 011°06'72 1.4
2017-Dec-08 04:42N 56°16' E 012°10'2 9.3
2017-Dec-08 04:28N 56°15' E 012°13'4 9.2
2017-Dec-08 04:00N 56°12' E 012°19'5 9.2
2017-Dec-08 03:31N 56°10' E 012°26'5 9.7
2017-Dec-08 03:00N 56°07' E 012°33'5 9.4
2017-Dec-08 02:30N 56°04' E 012°39'510.2
2017-Dec-08 02:01N 55°59' E 012°42'1 1.8
2017-Dec-08 01:30N 55°59' E 012°44'0 0.0
2017-Dec-08 01:00N 55°59' E 012°44'0 0.0
2017-Dec-08 00:30N 55°59' E 012°44'0 0.0
2017-Dec-08 00:00N 55°59' E 012°44'0 0.0
2017-Dec-07 23:30N 55°59' E 012°44'0 0.0
2017-Dec-07 23:00N 55°59' E 012°44'0 0.0
2017-Dec-07 22:30N 55°59' E 012°44'2 4.2
2017-Dec-07 22:01N 55°57' E 012°44'612.1
2017-Dec-07 21:30N 55°51' E 012°45'612.1
2017-Dec-07 21:01N 55°45' E 012°50'612.1
2017-Dec-07 20:31N 55°40' E 012°56'5 9.7
2017-Dec-07 20:00N 55°36' E 012°52'611.7
2017-Dec-07 19:31N 55°32' E 012°45'4 8.5
2017-Dec-07 19:00N 55°28' E 012°42'612.0
2017-Dec-07 18:30N 55°22' E 012°41'4 8.3
2017-Dec-07 18:00N 55°18' E 012°44'4 8.1
2017-Dec-07 17:31N 55°16' E 012°50'5 9.5
2017-Dec-07 17:01N 55°15' E 012°58'4 8.4
2017-Dec-07 16:30N 55°15' E 013°06'4 7.8
2017-Dec-07 15:59N 55°14' E 013°13'4 7.9
2017-Dec-07 15:30N 55°14' E 013°19'4 7.7
2017-Dec-07 14:58N 55°14' E 013°27'16 7.8
2017-Dec-07 12:57N 55°14' E 013°54'4 7.5
2017-Dec-07 12:26N 55°14' E 014°01'8 7.7
2017-Dec-07 11:22N 55°14' E 014°15'6 7.0
2017-Dec-07 10:33N 55°18' E 014°22'1 7.5
2017-Dec-07 10:27N 55°18' E 014°23'3 7.7
2017-Dec-07 10:00N 55°21' E 014°27'4 8.3
2017-Dec-07 09:30N 55°24' E 014°31'4 7.8
2017-Dec-07 09:00N 55°27' E 014°37'3 6.2
2017-Dec-07 08:30N 55°28' E 014°42'3 6.6
2017-Dec-07 08:00N 55°29' E 014°47'5 9.0
2017-Dec-07 07:29N 55°32' E 014°54'5 9.5
2017-Dec-07 06:57N 55°34' E 015°02'4 9.6
2017-Dec-07 06:30N 55°36' E 015°09'510.1
2017-Dec-07 06:00N 55°38' E 015°17'5 9.9
2017-Dec-07 05:31N 55°41' E 015°24'5 9.8
2017-Dec-07 05:00N 55°43' E 015°32'5 9.7
2017-Dec-07 04:31N 55°46' E 015°39'4 8.8
2017-Dec-07 04:00N 55°48' E 015°46'4 8.6
2017-Dec-07 03:31N 55°50' E 015°52'4 8.9
2017-Dec-07 03:00N 55°53' E 015°59'5 9.1
2017-Dec-07 02:31N 55°55' E 016°06'5 9.4
2017-Dec-07 02:01N 55°58' E 016°13'5 9.6
2017-Dec-07 01:31N 56°00' E 016°20'5 9.8
2017-Dec-07 01:01N 56°03' E 016°28'5 9.6
2017-Dec-07 00:30N 56°05' E 016°35'5 9.7
2017-Dec-07 00:01N 56°08' E 016°42'5 9.6
2017-Dec-06 23:27N 56°12' E 016°47'  
2017-Dec-03 00:59N 60°21' E 019°01'611.9
2017-Dec-03 00:30N 60°15' E 019°02'611.9
2017-Dec-03 00:00N 60°10' E 019°08'611.9
2017-Dec-02 23:30N 60°05' E 019°16'611.8
2017-Dec-02 23:00N 60°01' E 019°23'611.9
2017-Dec-02 22:30N 59°56' E 019°31'249 9.9
2017-Dec-01 21:15N 56°03' E 016°45'510.7
2017-Dec-01 20:47N 56°00' E 016°37'310.2
2017-Dec-01 20:31N 55°59' E 016°32'510.4
2017-Dec-01 20:01N 55°57' E 016°24'510.8
2017-Dec-01 19:31N 55°54' E 016°15'611.2
2017-Dec-01 19:01N 55°52' E 016°07'611.2
2017-Dec-01 18:31N 55°49' E 015°58'611.1
2017-Dec-01 18:01N 55°46' E 015°50'611.0
2017-Dec-01 17:31N 55°43' E 015°41'510.9
2017-Dec-01 17:01N 55°40' E 015°33'611.0
2017-Dec-01 16:30N 55°38' E 015°24'4 8.6
2017-Dec-01 16:01N 55°36' E 015°18'510.0
2017-Dec-01 15:31N 55°33' E 015°10'510.1
2017-Dec-01 15:01N 55°30' E 015°03'4 7.5
2017-Dec-01 14:30N 55°28' E 014°57'2 5.0
2017-Dec-01 14:01N 55°27' E 014°54'3 6.9
2017-Dec-01 13:30N 55°25' E 014°49'510.7
2017-Dec-01 13:00N 55°23' E 014°40'510.3
2017-Dec-01 12:31N 55°19' E 014°34'510.2
2017-Dec-01 12:01N 55°15' E 014°29'510.5
2017-Dec-01 11:31N 55°11' E 014°23'510.6
2017-Dec-01 11:00N 55°07' E 014°17'510.8
2017-Dec-01 10:31N 55°03' E 014°11'  
Track history (hours):
 
Tides and Currents Weather Stations Pressure Air Temp Water Temp Dewpoint Dewpoint Depression Visibility Wind Speed Wind Dir Waves Ship Positions

Colorado Star

Last reported at 2017-Dec-11 08:53 UTC. Time now 2017-Dec-13 22:49 UTC.
Position N 56°00' E 016°37'.

Length 128 m; draft 8.3 m.

Type: Ship. MMSI: 248127000.

Date/timePositionNaut miles runAvg speedWind from/ knotsBaromVisibWave heightAir tempDewpointWater temp
2017-Dec-11 08:53N 56°00' E 016°37'410.7
2017-Dec-11 08:30N 55°58' E 016°31'510.5
2017-Dec-11 08:00N 55°56' E 016°23'510.5
2017-Dec-11 07:30N 55°53' E 016°15'510.3
2017-Dec-11 07:00N 55°51' E 016°07'510.2
2017-Dec-11 06:30N 55°48' E 015°59'510.3
2017-Dec-11 06:00N 55°46' E 015°50'510.4
2017-Dec-11 05:30N 55°44' E 015°42'510.5
2017-Dec-11 05:00N 55°41' E 015°34'510.4
2017-Dec-11 04:30N 55°39' E 015°26'510.2
2017-Dec-11 04:00N 55°36' E 015°18'510.2
2017-Dec-11 03:30N 55°34' E 015°10'510.4
2017-Dec-11 03:00N 55°31' E 015°02'510.5
2017-Dec-11 02:30N 55°29' E 014°54'510.5
2017-Dec-11 02:00N 55°26' E 014°46'510.7
2017-Dec-11 01:30N 55°24' E 014°38'611.0
2017-Dec-11 01:00N 55°19' E 014°32'511.0
2017-Dec-11 00:30N 55°15' E 014°27'511.0
2017-Dec-11 00:00N 55°10' E 014°21'510.9
2017-Dec-10 23:30N 55°06' E 014°15'611.0
2017-Dec-10 23:00N 55°02' E 014°09'610.5
2017-Dec-10 22:27N 54°60' E 013°60'6410.4
2017-Dec-10 16:16N 54°34' E 012°18'311.0
2017-Dec-10 16:00N 54°31' E 012°16'511.0
2017-Dec-10 15:30N 54°26' E 012°12'2010.3
2017-Dec-10 13:33N 54°27' E 011°38'111.0
2017-Dec-10 13:30N 54°28' E 011°37'611.7
2017-Dec-10 12:59N 54°30' E 011°27'611.5
2017-Dec-10 12:30N 54°33' E 011°19'611.4
2017-Dec-10 12:00N 54°35' E 011°10'611.3
2017-Dec-10 11:30N 54°38' E 011°02'611.0
2017-Dec-10 11:00N 54°41' E 010°54'5 9.7
2017-Dec-10 10:30N 54°45' E 010°50'5 9.6
2017-Dec-10 10:00N 54°50' E 010°52'510.2
2017-Dec-10 09:30N 54°55' E 010°53'5 9.9
2017-Dec-10 09:00N 54°59' E 010°59'510.1
2017-Dec-10 08:30N 55°04' E 011°02'610.2
2017-Dec-10 07:58N 55°09' E 011°03'5 9.7
2017-Dec-10 07:29N 55°13' E 011°06'72 1.4
2017-Dec-08 04:42N 56°16' E 012°10'2 9.3
2017-Dec-08 04:28N 56°15' E 012°13'4 9.2
2017-Dec-08 04:00N 56°12' E 012°19'5 9.2
2017-Dec-08 03:31N 56°10' E 012°26'5 9.7
2017-Dec-08 03:00N 56°07' E 012°33'5 9.4
2017-Dec-08 02:30N 56°04' E 012°39'510.2
2017-Dec-08 02:01N 55°59' E 012°42'1 1.8
2017-Dec-08 01:30N 55°59' E 012°44'0 0.0
2017-Dec-08 01:00N 55°59' E 012°44'0 0.0
2017-Dec-08 00:30N 55°59' E 012°44'0 0.0
2017-Dec-08 00:00N 55°59' E 012°44'0 0.0
2017-Dec-07 23:30N 55°59' E 012°44'0 0.0
2017-Dec-07 23:00N 55°59' E 012°44'0 0.0
2017-Dec-07 22:30N 55°59' E 012°44'2 4.2
2017-Dec-07 22:01N 55°57' E 012°44'612.1
2017-Dec-07 21:30N 55°51' E 012°45'612.1
2017-Dec-07 21:01N 55°45' E 012°50'612.1
2017-Dec-07 20:31N 55°40' E 012°56'5 9.7
2017-Dec-07 20:00N 55°36' E 012°52'611.7
2017-Dec-07 19:31N 55°32' E 012°45'4 8.5
2017-Dec-07 19:00N 55°28' E 012°42'612.0
2017-Dec-07 18:30N 55°22' E 012°41'4 8.3
2017-Dec-07 18:00N 55°18' E 012°44'4 8.1
2017-Dec-07 17:31N 55°16' E 012°50'5 9.5
2017-Dec-07 17:01N 55°15' E 012°58'4 8.4
2017-Dec-07 16:30N 55°15' E 013°06'4 7.8
2017-Dec-07 15:59N 55°14' E 013°13'4 7.9
2017-Dec-07 15:30N 55°14' E 013°19'4 7.7
2017-Dec-07 14:58N 55°14' E 013°27'16 7.8
2017-Dec-07 12:57N 55°14' E 013°54'4 7.5
2017-Dec-07 12:26N 55°14' E 014°01'8 7.7
2017-Dec-07 11:22N 55°14' E 014°15'6 7.0
2017-Dec-07 10:33N 55°18' E 014°22'1 7.5
2017-Dec-07 10:27N 55°18' E 014°23'3 7.7
2017-Dec-07 10:00N 55°21' E 014°27'4 8.3
2017-Dec-07 09:30N 55°24' E 014°31'4 7.8
2017-Dec-07 09:00N 55°27' E 014°37'3 6.2
2017-Dec-07 08:30N 55°28' E 014°42'3 6.6
2017-Dec-07 08:00N 55°29' E 014°47'5 9.0
2017-Dec-07 07:29N 55°32' E 014°54'5 9.5
2017-Dec-07 06:57N 55°34' E 015°02'4 9.6
2017-Dec-07 06:30N 55°36' E 015°09'510.1
2017-Dec-07 06:00N 55°38' E 015°17'5 9.9
2017-Dec-07 05:31N 55°41' E 015°24'5 9.8
2017-Dec-07 05:00N 55°43' E 015°32'5 9.7
2017-Dec-07 04:31N 55°46' E 015°39'4 8.8
2017-Dec-07 04:00N 55°48' E 015°46'4 8.6
2017-Dec-07 03:31N 55°50' E 015°52'4 8.9
2017-Dec-07 03:00N 55°53' E 015°59'5 9.1
2017-Dec-07 02:31N 55°55' E 016°06'5 9.4
2017-Dec-07 02:01N 55°58' E 016°13'5 9.6
2017-Dec-07 01:31N 56°00' E 016°20'5 9.8
2017-Dec-07 01:01N 56°03' E 016°28'5 9.6
2017-Dec-07 00:30N 56°05' E 016°35'5 9.7
2017-Dec-07 00:01N 56°08' E 016°42'5 9.6
2017-Dec-06 23:27N 56°12' E 016°47'  
2017-Dec-03 00:59N 60°21' E 019°01'611.9
2017-Dec-03 00:30N 60°15' E 019°02'611.9
2017-Dec-03 00:00N 60°10' E 019°08'611.9
2017-Dec-02 23:30N 60°05' E 019°16'611.8
2017-Dec-02 23:00N 60°01' E 019°23'611.9
2017-Dec-02 22:30N 59°56' E 019°31'249 9.9
2017-Dec-01 21:15N 56°03' E 016°45'510.7
2017-Dec-01 20:47N 56°00' E 016°37'310.2
2017-Dec-01 20:31N 55°59' E 016°32'510.4
2017-Dec-01 20:01N 55°57' E 016°24'510.8
2017-Dec-01 19:31N 55°54' E 016°15'611.2
2017-Dec-01 19:01N 55°52' E 016°07'611.2
2017-Dec-01 18:31N 55°49' E 015°58'611.1
2017-Dec-01 18:01N 55°46' E 015°50'611.0
2017-Dec-01 17:31N 55°43' E 015°41'510.9
2017-Dec-01 17:01N 55°40' E 015°33'611.0
2017-Dec-01 16:30N 55°38' E 015°24'4 8.6
2017-Dec-01 16:01N 55°36' E 015°18'510.0
2017-Dec-01 15:31N 55°33' E 015°10'510.1
2017-Dec-01 15:01N 55°30' E 015°03'4 7.5
2017-Dec-01 14:30N 55°28' E 014°57'2 5.0
2017-Dec-01 14:01N 55°27' E 014°54'3 6.9
2017-Dec-01 13:30N 55°25' E 014°49'510.7
2017-Dec-01 13:00N 55°23' E 014°40'510.3
2017-Dec-01 12:31N 55°19' E 014°34'510.2
2017-Dec-01 12:01N 55°15' E 014°29'510.5
2017-Dec-01 11:31N 55°11' E 014°23'510.6
2017-Dec-01 11:00N 55°07' E 014°17'510.8
2017-Dec-01 10:31N 55°03' E 014°11'  

Dump ship's entire track history